Valiant — WCY6766 — position and weather

sailwx.info

Track history (hours):
 
Tides and Currents Weather Stations Pressure Air Temp Water Temp Dewpoint Dewpoint Depression Visibility Wind Speed Wind Dir Waves Ship Positions

Valiant

Owner: PENN MARITIME INC, SEATTLE, WA. More information available from US FCC via Universal Licensing System and Coast Guard Vessel Documentation Center.

Last reported at 2016-Feb-12 03:32 UTC. Time now 2016-Feb-14 03:58 UTC.
Position N 27°55' W 092°38'.

Length 165 m; draft 6.4 m.

Type: Cargo ship. MMSI: 369350000.

Date/timePositionNaut miles runAvg speedWind from/ knotsBaromVisibWave heightAir tempDewpointWater temp
2016-Feb-12 03:32N 27°55' W 092°38'1110.1
2016-Feb-12 02:25N 28°04' W 092°46'9 9.8
2016-Feb-12 01:32N 28°11' W 092°52'10 9.8
2016-Feb-12 00:33N 28°19' W 092°58'1010.0
2016-Feb-11 23:33N 28°27' W 093°05'10 9.9
2016-Feb-11 22:33N 28°35' W 093°12'9 9.3
2016-Feb-11 21:33N 28°42' W 093°18'9 8.9
2016-Feb-11 20:33N 28°49' W 093°25'12 9.1
2016-Feb-11 19:17N 28°58' W 093°33'16 9.0
2016-Feb-11 17:33N 29°12' W 093°41'10 9.5
2016-Feb-11 16:32N 29°22' W 093°40'13 8.8
2016-Feb-11 15:06N 29°34' W 093°45'6 9.6
2016-Feb-11 14:28N 29°38' W 093°49'9 9.1
2016-Feb-11 13:30N 29°46' W 093°55'5 4.1
2016-Feb-11 12:20N 29°50' W 093°58'0 0.0
2016-Feb-11 11:08N 29°50' W 093°58'0 0.0
2016-Feb-11 08:26N 29°50' W 093°58'0 0.0
2016-Feb-11 07:32N 29°50' W 093°58'0 0.0
2016-Feb-11 05:06N 29°50' W 093°58'  
2016-Feb-07 12:09N 29°56' W 090°20'  
2016-Feb-03 04:29N 28°52' W 093°28'9 9.7
2016-Feb-03 03:32N 28°60' W 093°34'9 9.7
2016-Feb-03 02:33N 29°08' W 093°40'10 9.9
2016-Feb-03 01:31N 29°18' W 093°40'10 9.9
2016-Feb-03 00:33N 29°27' W 093°40'9 8.7
2016-Feb-02 23:33N 29°34' W 093°46'10 9.8
2016-Feb-02 22:32N 29°43' W 093°52'8 8.2
2016-Feb-02 21:33N 29°49' W 093°58'  
Track history (hours):
 
Tides and Currents Weather Stations Pressure Air Temp Water Temp Dewpoint Dewpoint Depression Visibility Wind Speed Wind Dir Waves Ship Positions

Valiant

Owner: PENN MARITIME INC, SEATTLE, WA. More information available from US FCC via Universal Licensing System and Coast Guard Vessel Documentation Center.

Last reported at 2016-Feb-12 03:32 UTC. Time now 2016-Feb-14 03:58 UTC.
Position N 27°55' W 092°38'.

Length 165 m; draft 6.4 m.

Type: Cargo ship. MMSI: 369350000.

Date/timePositionNaut miles runAvg speedWind from/ knotsBaromVisibWave heightAir tempDewpointWater temp
2016-Feb-12 03:32N 27°55' W 092°38'1110.1
2016-Feb-12 02:25N 28°04' W 092°46'9 9.8
2016-Feb-12 01:32N 28°11' W 092°52'10 9.8
2016-Feb-12 00:33N 28°19' W 092°58'1010.0
2016-Feb-11 23:33N 28°27' W 093°05'10 9.9
2016-Feb-11 22:33N 28°35' W 093°12'9 9.3
2016-Feb-11 21:33N 28°42' W 093°18'9 8.9
2016-Feb-11 20:33N 28°49' W 093°25'12 9.1
2016-Feb-11 19:17N 28°58' W 093°33'16 9.0
2016-Feb-11 17:33N 29°12' W 093°41'10 9.5
2016-Feb-11 16:32N 29°22' W 093°40'13 8.8
2016-Feb-11 15:06N 29°34' W 093°45'6 9.6
2016-Feb-11 14:28N 29°38' W 093°49'9 9.1
2016-Feb-11 13:30N 29°46' W 093°55'5 4.1
2016-Feb-11 12:20N 29°50' W 093°58'0 0.0
2016-Feb-11 11:08N 29°50' W 093°58'0 0.0
2016-Feb-11 08:26N 29°50' W 093°58'0 0.0
2016-Feb-11 07:32N 29°50' W 093°58'0 0.0
2016-Feb-11 05:06N 29°50' W 093°58'  
2016-Feb-07 12:09N 29°56' W 090°20'  
2016-Feb-03 04:29N 28°52' W 093°28'9 9.7
2016-Feb-03 03:32N 28°60' W 093°34'9 9.7
2016-Feb-03 02:33N 29°08' W 093°40'10 9.9
2016-Feb-03 01:31N 29°18' W 093°40'10 9.9
2016-Feb-03 00:33N 29°27' W 093°40'9 8.7
2016-Feb-02 23:33N 29°34' W 093°46'10 9.8
2016-Feb-02 22:32N 29°43' W 093°52'8 8.2
2016-Feb-02 21:33N 29°49' W 093°58'  

Dump ship's entire track history